Time,TemperatureF,DewpointF,PressureIn,WindDirection,WindDirectionDegrees,WindSpeedMPH,WindSpeedGustMPH,Humidity,HourlyPrecipIn,Conditions,Clouds,dailyrainin,SoftwareType,DateUTC
2013-08-07 00:01:00,67.8,60.5,30.14,South,180,0.0,1.1,77,0.00,,,0.00,WUHU21623XXSP,2013-08-07 04:01:00,
2013-08-07 00:06:00,67.6,60.7,30.13,South,180,0.0,0.0,78,0.00,,,0.00,WUHU21623XXSP,2013-08-07 04:06:00,
2013-08-07 00:11:00,67.5,60.6,30.13,South,180,0.0,0.0,78,0.00,,,0.00,WUHU21623XXSP,2013-08-07 04:11:00,
2013-08-07 00:16:00,67.5,60.6,30.13,South,180,0.0,0.0,78,0.00,,,0.00,WUHU21623XXSP,2013-08-07 04:16:00,
2013-08-07 00:21:00,67.3,60.7,30.13,South,180,0.0,0.0,79,0.00,,,0.00,WUHU21623XXSP,2013-08-07 04:21:00,
2013-08-07 00:26:00,67.1,60.9,30.13,South,180,0.0,0.0,80,0.00,,,0.00,WUHU21623XXSP,2013-08-07 04:26:00,
2013-08-07 00:31:00,66.9,61.0,30.13,South,180,0.0,0.0,81,0.00,,,0.00,WUHU21623XXSP,2013-08-07 04:31:00,
2013-08-07 00:36:00,66.7,61.1,30.13,South,180,0.0,0.0,82,0.00,,,0.00,WUHU21623XXSP,2013-08-07 04:36:00,
2013-08-07 00:41:00,66.6,61.1,30.13,South,180,0.0,0.0,82,0.00,,,0.00,WUHU21623XXSP,2013-08-07 04:41:00,
2013-08-07 00:46:00,66.4,60.9,30.13,South,180,0.0,0.0,82,0.00,,,0.00,WUHU21623XXSP,2013-08-07 04:46:00,
2013-08-07 00:51:00,66.4,61.2,30.13,South,180,0.0,0.0,83,0.00,,,0.00,WUHU21623XXSP,2013-08-07 04:51:00,
2013-08-07 00:56:00,66.0,60.8,30.13,South,180,0.0,0.0,83,0.00,,,0.00,WUHU21623XXSP,2013-08-07 04:56:00,
2013-08-07 01:01:00,65.8,60.6,30.13,South,180,0.0,0.0,83,0.00,,,0.00,WUHU21623XXSP,2013-08-07 05:01:00,
2013-08-07 01:06:00,65.8,60.9,30.13,South,180,0.0,0.0,84,0.00,,,0.00,WUHU21623XXSP,2013-08-07 05:06:00,
2013-08-07 01:11:00,65.5,61.0,30.13,South,180,0.0,0.0,85,0.00,,,0.00,WUHU21623XXSP,2013-08-07 05:11:00,
2013-08-07 01:18:00,65.5,61.0,30.13,South,180,0.0,0.0,85,0.00,,,0.00,WUHU21623XXSP,2013-08-07 05:18:00,
2013-08-07 01:23:00,65.5,61.3,30.13,South,180,0.0,0.0,86,0.00,,,0.00,WUHU21623XXSP,2013-08-07 05:23:00,
2013-08-07 01:28:00,65.3,61.1,30.13,South,180,0.0,0.0,86,0.00,,,0.00,WUHU21623XXSP,2013-08-07 05:28:00,
2013-08-07 01:33:00,65.3,61.1,30.13,South,180,0.0,0.0,86,0.00,,,0.00,WUHU21623XXSP,2013-08-07 05:33:00,
2013-08-07 01:37:00,65.3,61.1,30.13,South,180,0.0,0.0,86,0.00,,,0.00,WUHU21623XXSP,2013-08-07 05:37:00,
2013-08-07 01:43:00,65.3,61.4,30.13,South,180,0.0,0.0,87,0.00,,,0.00,WUHU21623XXSP,2013-08-07 05:43:00,
2013-08-07 01:48:00,65.3,61.7,30.13,South,180,0.0,0.0,88,0.00,,,0.00,WUHU21623XXSP,2013-08-07 05:48:00,
2013-08-07 01:53:00,65.3,61.7,30.13,South,180,0.0,0.0,88,0.00,,,0.00,WUHU21623XXSP,2013-08-07 05:53:00,
2013-08-07 01:58:00,65.5,61.9,30.13,South,180,0.0,0.0,88,0.00,,,0.00,WUHU21623XXSP,2013-08-07 05:58:00,
2013-08-07 02:03:00,65.5,61.9,30.13,South,180,0.0,0.0,88,0.00,,,0.00,WUHU21623XXSP,2013-08-07 06:03:00,
2013-08-07 02:08:00,65.5,61.9,30.13,South,180,0.0,0.0,88,0.00,,,0.00,WUHU21623XXSP,2013-08-07 06:08:00,
2013-08-07 02:13:00,65.7,62.1,30.13,South,180,0.0,0.0,88,0.00,,,0.00,WUHU21623XXSP,2013-08-07 06:13:00,
2013-08-07 02:18:00,65.7,62.4,30.14,South,180,0.0,0.0,89,0.00,,,0.00,WUHU21623XXSP,2013-08-07 06:18:00,
2013-08-07 02:23:00,65.8,62.5,30.14,South,180,0.0,0.0,89,0.00,,,0.00,WUHU21623XXSP,2013-08-07 06:23:00,
2013-08-07 02:28:00,65.7,62.4,30.14,SW,225,0.0,0.0,89,0.00,,,0.00,WUHU21623XXSP,2013-08-07 06:28:00,
2013-08-07 02:33:00,65.7,62.4,30.14,SW,225,0.0,0.0,89,0.00,,,0.00,WUHU21623XXSP,2013-08-07 06:33:00,
2013-08-07 02:38:00,65.7,62.4,30.14,SW,225,0.0,0.0,89,0.00,,,0.00,WUHU21623XXSP,2013-08-07 06:38:00,
2013-08-07 02:43:00,65.7,62.4,30.14,SW,225,0.0,0.0,89,0.00,,,0.00,WUHU21623XXSP,2013-08-07 06:43:00,
2013-08-07 02:48:00,65.7,62.4,30.14,SW,225,0.0,0.0,89,0.00,,,0.00,WUHU21623XXSP,2013-08-07 06:48:00,
2013-08-07 02:53:00,65.7,62.4,30.14,SW,225,0.0,0.0,89,0.00,,,0.00,WUHU21623XXSP,2013-08-07 06:53:00,
2013-08-07 02:58:00,65.7,62.4,30.14,SW,225,0.0,0.0,89,0.00,,,0.00,WUHU21623XXSP,2013-08-07 06:58:00,
2013-08-07 03:03:00,65.7,62.7,30.13,SW,225,0.0,0.0,90,0.00,,,0.00,WUHU21623XXSP,2013-08-07 07:03:00,
2013-08-07 03:08:00,65.7,62.7,30.13,SW,225,0.0,0.0,90,0.00,,,0.00,WUHU21623XXSP,2013-08-07 07:08:00,
2013-08-07 03:13:00,65.8,62.8,30.13,SW,225,0.0,0.0,90,0.00,,,0.00,WUHU21623XXSP,2013-08-07 07:13:00,
2013-08-07 03:18:00,65.8,62.8,30.13,ENE,67,0.0,0.0,90,0.00,,,0.00,WUHU21623XXSP,2013-08-07 07:18:00,
2013-08-07 03:24:00,65.8,62.8,30.13,ENE,67,0.0,0.0,90,0.00,,,0.00,WUHU21623XXSP,2013-08-07 07:24:00,
2013-08-07 03:29:00,65.8,62.8,30.13,ENE,67,0.0,0.0,90,0.00,,,0.00,WUHU21623XXSP,2013-08-07 07:29:00,
2013-08-07 03:34:00,65.8,62.8,30.13,ENE,67,0.0,0.0,90,0.00,,,0.00,WUHU21623XXSP,2013-08-07 07:34:00,
2013-08-07 03:39:00,66.0,63.0,30.13,ENE,67,0.0,0.0,90,0.00,,,0.00,WUHU21623XXSP,2013-08-07 07:39:00,
2013-08-07 03:44:00,65.8,62.8,30.13,ENE,67,0.0,0.0,90,0.00,,,0.00,WUHU21623XXSP,2013-08-07 07:44:00,
2013-08-07 03:49:00,65.8,62.8,30.13,ENE,67,0.0,0.0,90,0.00,,,0.00,WUHU21623XXSP,2013-08-07 07:49:00,
2013-08-07 03:54:00,65.8,62.8,30.13,ENE,67,0.0,0.0,90,0.00,,,0.00,WUHU21623XXSP,2013-08-07 07:54:00,
2013-08-07 03:59:00,65.8,62.8,30.13,ENE,67,0.0,0.0,90,0.00,,,0.00,WUHU21623XXSP,2013-08-07 07:59:00,
2013-08-07 04:04:00,65.8,62.8,30.13,ENE,67,0.0,0.0,90,0.00,,,0.00,WUHU21623XXSP,2013-08-07 08:04:00,
2013-08-07 04:09:00,65.7,62.7,30.13,ENE,67,0.0,0.0,90,0.00,,,0.00,WUHU21623XXSP,2013-08-07 08:09:00,
2013-08-07 04:14:00,65.3,62.3,30.13,ENE,67,0.0,0.0,90,0.00,,,0.00,WUHU21623XXSP,2013-08-07 08:14:00,
2013-08-07 04:19:00,65.3,62.3,30.14,ENE,67,0.0,0.0,90,0.00,,,0.00,WUHU21623XXSP,2013-08-07 08:19:00,
2013-08-07 04:24:00,65.3,62.6,30.14,ENE,67,0.0,0.0,91,0.00,,,0.00,WUHU21623XXSP,2013-08-07 08:24:00,
2013-08-07 04:29:00,65.1,62.4,30.14,ENE,67,0.0,0.0,91,0.00,,,0.00,WUHU21623XXSP,2013-08-07 08:29:00,
2013-08-07 04:34:00,64.9,62.2,30.13,ENE,67,0.0,0.0,91,0.00,,,0.00,WUHU21623XXSP,2013-08-07 08:34:00,
2013-08-07 04:39:00,64.8,62.5,30.13,ENE,67,0.0,0.0,92,0.00,,,0.00,WUHU21623XXSP,2013-08-07 08:39:00,
2013-08-07 04:44:00,64.8,62.5,30.13,ENE,67,0.0,0.0,92,0.00,,,0.00,WUHU21623XXSP,2013-08-07 08:44:00,
2013-08-07 04:49:00,64.6,62.3,30.13,ENE,67,0.0,0.0,92,0.00,,,0.00,WUHU21623XXSP,2013-08-07 08:49:00,
2013-08-07 04:54:00,64.8,62.5,30.14,ENE,67,0.0,0.0,92,0.00,,,0.00,WUHU21623XXSP,2013-08-07 08:54:00,
2013-08-07 04:59:00,64.6,62.3,30.14,ENE,67,0.0,0.0,92,0.00,,,0.00,WUHU21623XXSP,2013-08-07 08:59:00,
2013-08-07 05:04:00,64.6,62.3,30.14,ENE,67,0.0,0.0,92,0.00,,,0.00,WUHU21623XXSP,2013-08-07 09:04:00,
2013-08-07 05:09:00,64.6,62.3,30.14,ENE,67,0.0,0.0,92,0.00,,,0.00,WUHU21623XXSP,2013-08-07 09:09:00,
2013-08-07 05:14:00,64.4,62.1,30.14,ENE,67,0.0,0.0,92,0.00,,,0.00,WUHU21623XXSP,2013-08-07 09:14:00,
2013-08-07 05:19:00,64.2,62.2,30.14,ENE,67,0.0,0.0,93,0.00,,,0.00,WUHU21623XXSP,2013-08-07 09:19:00,
2013-08-07 05:24:00,64.2,62.2,30.14,ENE,67,0.0,0.0,93,0.00,,,0.00,WUHU21623XXSP,2013-08-07 09:24:00,
2013-08-07 05:30:00,64.4,62.7,30.14,ENE,67,0.0,0.0,94,0.00,,,0.00,WUHU21623XXSP,2013-08-07 09:30:00,
2013-08-07 05:35:00,64.4,62.7,30.15,ENE,67,0.0,0.0,94,0.00,,,0.00,WUHU21623XXSP,2013-08-07 09:35:00,
2013-08-07 05:40:00,64.6,62.9,30.14,ENE,67,0.0,0.0,94,0.00,,,0.00,WUHU21623XXSP,2013-08-07 09:40:00,
2013-08-07 05:45:00,64.8,63.1,30.14,ENE,67,0.0,0.0,94,0.00,,,0.00,WUHU21623XXSP,2013-08-07 09:45:00,
2013-08-07 05:50:00,64.8,63.1,30.15,ENE,67,0.0,0.0,94,0.00,,,0.00,WUHU21623XXSP,2013-08-07 09:50:00,
2013-08-07 05:55:00,64.9,63.2,30.14,ENE,67,0.0,0.0,94,0.00,,,0.00,WUHU21623XXSP,2013-08-07 09:55:00,
2013-08-07 06:00:00,65.1,63.4,30.15,ENE,67,0.0,0.0,94,0.00,,,0.00,WUHU21623XXSP,2013-08-07 10:00:00,
2013-08-07 06:05:00,65.1,63.7,30.15,ENE,67,0.0,0.0,95,0.00,,,0.00,WUHU21623XXSP,2013-08-07 10:05:00,
2013-08-07 06:10:00,65.1,63.7,30.15,ENE,67,0.0,0.0,95,0.00,,,0.00,WUHU21623XXSP,2013-08-07 10:10:00,
2013-08-07 06:15:00,65.3,63.6,30.15,ENE,67,0.0,0.0,94,0.00,,,0.00,WUHU21623XXSP,2013-08-07 10:15:00,
2013-08-07 06:20:00,65.3,63.6,30.15,ENE,67,0.0,0.0,94,0.00,,,0.00,WUHU21623XXSP,2013-08-07 10:20:00,
2013-08-07 06:25:00,65.3,63.6,30.15,ENE,67,0.0,0.0,94,0.00,,,0.00,WUHU21623XXSP,2013-08-07 10:25:00,
2013-08-07 06:30:00,65.5,63.8,30.15,ENE,67,0.0,0.0,94,0.00,,,0.00,WUHU21623XXSP,2013-08-07 10:30:00,
2013-08-07 06:35:00,65.5,63.4,30.15,ENE,67,0.0,0.0,93,0.00,,,0.00,WUHU21623XXSP,2013-08-07 10:35:00,
2013-08-07 06:40:00,65.3,63.3,30.15,ENE,67,0.0,0.0,93,0.00,,,0.00,WUHU21623XXSP,2013-08-07 10:40:00,
2013-08-07 06:45:00,65.5,63.4,30.15,ENE,67,0.0,0.0,93,0.00,,,0.00,WUHU21623XXSP,2013-08-07 10:45:00,
2013-08-07 06:50:00,65.5,63.4,30.15,ENE,67,0.0,0.0,93,0.00,,,0.00,WUHU21623XXSP,2013-08-07 10:50:00,
2013-08-07 06:55:00,65.7,64.0,30.15,ENE,67,0.0,0.0,94,0.00,,,0.00,WUHU21623XXSP,2013-08-07 10:55:00,
2013-08-07 07:00:00,65.7,64.0,30.15,ENE,67,0.0,0.0,94,0.00,,,0.00,WUHU21623XXSP,2013-08-07 11:00:00,
2013-08-07 07:05:00,65.8,64.1,30.15,ENE,67,0.0,0.0,94,0.00,,,0.00,WUHU21623XXSP,2013-08-07 11:05:00,
2013-08-07 07:10:00,65.8,64.1,30.15,ENE,67,0.0,0.0,94,0.00,,,0.00,WUHU21623XXSP,2013-08-07 11:10:00,
2013-08-07 07:15:00,65.8,63.7,30.15,ENE,67,0.0,0.0,93,0.00,,,0.00,WUHU21623XXSP,2013-08-07 11:15:00,
2013-08-07 07:20:00,66.0,63.9,30.15,ENE,67,0.0,0.0,93,0.00,,,0.00,WUHU21623XXSP,2013-08-07 11:20:00,
2013-08-07 07:25:00,66.2,64.4,30.15,SE,135,0.0,0.0,94,0.00,,,0.00,WUHU21623XXSP,2013-08-07 11:25:00,
2013-08-07 07:30:00,66.4,64.6,30.15,SE,135,0.0,0.0,94,0.00,,,0.00,WUHU21623XXSP,2013-08-07 11:30:00,
2013-08-07 07:35:00,66.6,64.8,30.15,SE,135,0.0,1.6,94,0.00,,,0.00,WUHU21623XXSP,2013-08-07 11:35:00,
2013-08-07 07:40:00,66.7,64.9,30.16,SE,135,0.0,1.6,94,0.00,,,0.00,WUHU21623XXSP,2013-08-07 11:40:00,
2013-08-07 07:45:00,66.7,64.9,30.15,SE,135,0.0,0.0,94,0.00,,,0.00,WUHU21623XXSP,2013-08-07 11:45:00,
2013-08-07 07:50:00,66.9,65.1,30.15,ENE,67,0.0,0.0,94,0.00,,,0.00,WUHU21623XXSP,2013-08-07 11:50:00,
2013-08-07 07:55:00,67.1,64.7,30.15,ENE,67,0.0,0.0,92,0.00,,,0.00,WUHU21623XXSP,2013-08-07 11:55:00,
2013-08-07 08:00:00,67.5,65.4,30.15,ENE,67,0.0,0.0,93,0.00,,,0.00,WUHU21623XXSP,2013-08-07 12:00:00,
2013-08-07 08:05:00,67.5,65.1,30.15,ENE,67,0.0,0.0,92,0.00,,,0.00,WUHU21623XXSP,2013-08-07 12:05:00,
2013-08-07 08:10:00,67.8,65.4,30.15,East,90,0.0,0.0,92,0.00,,,0.00,WUHU21623XXSP,2013-08-07 12:10:00,
2013-08-07 08:15:00,68.2,65.8,30.15,ESE,122,1.5,3.6,92,0.00,,,0.00,WUHU21623XXSP,2013-08-07 12:15:00,
2013-08-07 08:20:00,68.4,66.0,30.15,SE,135,0.4,3.6,92,0.00,,,0.00,WUHU21623XXSP,2013-08-07 12:20:00,
2013-08-07 08:25:00,68.7,66.3,30.15,ESE,118,4.6,9.2,92,0.00,,,0.00,WUHU21623XXSP,2013-08-07 12:25:00,
2013-08-07 08:30:00,68.9,65.9,30.14,SE,135,5.8,10.5,90,0.00,,,0.00,WUHU21623XXSP,2013-08-07 12:30:00,
2013-08-07 08:35:00,69.1,65.8,30.15,ESE,105,6.1,10.5,89,0.00,,,0.00,WUHU21623XXSP,2013-08-07 12:35:00,
2013-08-07 08:40:00,69.4,65.8,30.15,East,101,5.4,11.4,88,0.00,,,0.00,WUHU21623XXSP,2013-08-07 12:40:00,
2013-08-07 08:45:00,69.6,65.9,30.15,ESE,123,2.6,11.4,88,0.00,,,0.00,WUHU21623XXSP,2013-08-07 12:45:00,
2013-08-07 08:50:00,70.0,66.0,30.14,South,180,3.6,9.2,87,0.00,,,0.00,WUHU21623XXSP,2013-08-07 12:50:00,
2013-08-07 08:55:00,70.0,66.0,30.14,ESE,112,0.7,9.2,87,0.00,,,0.00,WUHU21623XXSP,2013-08-07 12:55:00,
2013-08-07 09:00:00,70.5,66.2,30.14,ESE,118,2.5,8.5,86,0.00,,,0.00,WUHU21623XXSP,2013-08-07 13:00:00,
2013-08-07 09:05:00,70.5,66.2,30.14,ESE,112,0.0,8.5,86,0.00,,,0.00,WUHU21623XXSP,2013-08-07 13:05:00,
2013-08-07 09:10:00,70.7,65.7,30.14,ESE,116,7.0,9.6,84,0.00,,,0.00,WUHU21623XXSP,2013-08-07 13:10:00,
2013-08-07 09:15:00,70.9,65.6,30.14,SE,129,2.0,9.6,83,0.00,,,0.00,WUHU21623XXSP,2013-08-07 13:15:00,
2013-08-07 09:20:00,70.9,65.3,30.14,SSE,157,2.2,9.6,82,0.00,,,0.00,WUHU21623XXSP,2013-08-07 13:20:00,
2013-08-07 09:25:00,71.1,65.5,30.14,ESE,114,3.8,8.7,82,0.00,,,0.00,WUHU21623XXSP,2013-08-07 13:25:00,
2013-08-07 09:30:00,71.2,65.6,30.14,SE,135,0.9,7.6,82,0.00,,,0.00,WUHU21623XXSP,2013-08-07 13:30:00,
2013-08-07 09:35:00,71.2,65.6,30.14,ESE,112,8.5,8.5,82,0.00,,,0.00,WUHU21623XXSP,2013-08-07 13:35:00,
2013-08-07 09:41:00,71.2,65.2,30.14,South,180,0.4,11.2,81,0.00,,,0.00,WUHU21623XXSP,2013-08-07 13:41:00,
2013-08-07 09:46:00,71.6,65.6,30.14,SE,137,3.4,11.2,81,0.00,,,0.00,WUHU21623XXSP,2013-08-07 13:46:00,
2013-08-07 09:51:00,71.8,65.8,30.13,SE,135,5.4,8.1,81,0.00,,,0.00,WUHU21623XXSP,2013-08-07 13:51:00,
2013-08-07 09:56:00,71.8,65.5,30.14,ESE,118,4.8,8.5,80,0.00,,,0.00,WUHU21623XXSP,2013-08-07 13:56:00,
2013-08-07 10:01:00,72.0,65.6,30.13,SSE,157,0.2,8.5,80,0.00,,,0.00,WUHU21623XXSP,2013-08-07 14:01:00,
2013-08-07 10:06:00,72.3,66.3,30.14,ESE,113,5.1,8.7,81,0.00,,,0.00,WUHU21623XXSP,2013-08-07 14:06:00,
2013-08-07 10:11:00,72.5,65.8,30.14,ESE,112,2.2,8.7,79,0.00,,,0.00,WUHU21623XXSP,2013-08-07 14:11:00,
2013-08-07 10:16:00,72.5,65.8,30.14,ESE,112,8.7,8.7,79,0.00,,,0.00,WUHU21623XXSP,2013-08-07 14:16:00,
2013-08-07 10:21:00,72.7,65.6,30.14,SSE,157,1.8,8.7,78,0.00,,,0.00,WUHU21623XXSP,2013-08-07 14:21:00,
2013-08-07 10:26:00,72.5,65.4,30.14,SE,135,0.4,6.0,78,0.00,,,0.00,WUHU21623XXSP,2013-08-07 14:26:00,
2013-08-07 10:31:00,72.5,65.4,30.14,SSE,157,2.0,5.8,78,0.00,,,0.00,WUHU21623XXSP,2013-08-07 14:31:00,
2013-08-07 10:36:00,72.5,65.4,30.15,SSE,157,0.3,5.8,78,0.00,,,0.00,WUHU21623XXSP,2013-08-07 14:36:00,
2013-08-07 10:41:00,72.7,65.6,30.15,ESE,120,1.1,8.3,78,0.00,,,0.00,WUHU21623XXSP,2013-08-07 14:41:00,
2013-08-07 10:46:00,72.7,65.3,30.14,SE,143,0.6,8.3,77,0.00,,,0.00,WUHU21623XXSP,2013-08-07 14:46:00,
2013-08-07 10:51:00,72.7,65.3,30.15,SE,127,3.0,8.9,77,0.00,,,0.00,WUHU21623XXSP,2013-08-07 14:51:00,
2013-08-07 10:56:00,72.9,65.5,30.14,ESE,112,4.9,8.9,77,0.00,,,0.00,WUHU21623XXSP,2013-08-07 14:56:00,
2013-08-07 11:01:00,73.0,65.6,30.14,SE,135,2.9,7.2,77,0.00,,,0.00,WUHU21623XXSP,2013-08-07 15:01:00,
2013-08-07 11:06:00,73.4,66.0,30.14,SSE,151,2.4,8.3,77,0.00,,,0.00,WUHU21623XXSP,2013-08-07 15:06:00,
2013-08-07 11:11:00,73.8,66.3,30.14,SE,133,0.7,8.3,77,0.00,,,0.00,WUHU21623XXSP,2013-08-07 15:11:00,
2013-08-07 11:16:00,73.9,66.1,30.14,SSE,157,2.0,11.4,76,0.00,,,0.00,WUHU21623XXSP,2013-08-07 15:16:00,
2013-08-07 11:21:00,74.1,66.3,30.14,ENE,67,5.6,11.4,76,0.00,,,0.00,WUHU21623XXSP,2013-08-07 15:21:00,
2013-08-07 11:26:00,74.1,65.9,30.14,ESE,112,5.6,9.8,75,0.00,,,0.00,WUHU21623XXSP,2013-08-07 15:26:00,
2013-08-07 11:31:00,74.3,66.1,30.14,East,90,2.9,10.3,75,0.00,,,0.00,WUHU21623XXSP,2013-08-07 15:31:00,
2013-08-07 11:36:00,74.5,65.9,30.14,SSE,157,2.9,12.5,74,0.00,,,0.00,WUHU21623XXSP,2013-08-07 15:36:00,
2013-08-07 11:41:00,74.8,65.8,30.14,ESE,111,4.5,12.5,73,0.00,,,0.00,WUHU21623XXSP,2013-08-07 15:41:00,
2013-08-07 11:47:00,74.8,65.4,30.14,SE,135,6.3,9.8,72,0.00,,,0.00,WUHU21623XXSP,2013-08-07 15:47:00,
2013-08-07 11:52:00,74.8,65.4,30.14,SE,137,3.4,9.8,72,0.00,,,0.00,WUHU21623XXSP,2013-08-07 15:52:00,
2013-08-07 11:57:00,74.7,65.3,30.14,ESE,119,2.9,9.8,72,0.00,,,0.00,WUHU21623XXSP,2013-08-07 15:57:00,
2013-08-07 12:02:00,74.8,65.4,30.14,ESE,122,2.5,9.8,72,0.00,,,0.00,WUHU21623XXSP,2013-08-07 16:02:00,
2013-08-07 12:07:00,75.2,65.8,30.14,ESE,112,0.1,5.4,72,0.00,,,0.00,WUHU21623XXSP,2013-08-07 16:07:00,
2013-08-07 12:12:00,75.4,66.0,30.14,South,180,0.0,4.7,72,0.00,,,0.00,WUHU21623XXSP,2013-08-07 16:12:00,
2013-08-07 12:17:00,75.6,66.2,30.14,SE,135,6.3,7.4,72,0.00,,,0.00,WUHU21623XXSP,2013-08-07 16:17:00,
2013-08-07 12:22:00,75.7,66.3,30.14,ESE,112,4.0,7.4,72,0.00,,,0.00,WUHU21623XXSP,2013-08-07 16:22:00,
2013-08-07 12:27:00,75.9,65.7,30.14,SE,131,1.6,6.9,70,0.00,,,0.00,WUHU21623XXSP,2013-08-07 16:27:00,
2013-08-07 12:32:00,75.9,65.7,30.14,East,90,3.6,8.5,70,0.00,,,0.00,WUHU21623XXSP,2013-08-07 16:32:00,
2013-08-07 12:37:00,75.7,65.5,30.14,SSE,152,0.6,9.2,70,0.00,,,0.00,WUHU21623XXSP,2013-08-07 16:37:00,
2013-08-07 12:42:00,75.6,65.4,30.14,SE,133,3.3,9.2,70,0.00,,,0.00,WUHU21623XXSP,2013-08-07 16:42:00,
2013-08-07 12:47:00,75.6,65.4,30.14,ESE,112,3.1,8.1,70,0.00,,,0.00,WUHU21623XXSP,2013-08-07 16:47:00,
2013-08-07 12:52:00,75.4,65.2,30.14,ESE,123,5.1,9.8,70,0.00,,,0.00,WUHU21623XXSP,2013-08-07 16:52:00,
2013-08-07 12:57:00,75.2,65.0,30.14,SE,135,2.2,9.8,70,0.00,,,0.00,WUHU21623XXSP,2013-08-07 16:57:00,
2013-08-07 13:02:00,75.4,65.2,30.14,SSE,157,8.1,8.5,70,0.00,,,0.00,WUHU21623XXSP,2013-08-07 17:02:00,
2013-08-07 13:07:00,75.2,65.0,30.15,ESE,112,5.4,8.1,70,0.00,,,0.00,WUHU21623XXSP,2013-08-07 17:07:00,
2013-08-07 13:12:00,75.2,65.4,30.15,SE,135,2.9,8.1,71,0.00,,,0.00,WUHU21623XXSP,2013-08-07 17:12:00,
2013-08-07 13:17:00,75.4,65.6,30.15,SE,135,0.8,8.1,71,0.00,,,0.00,WUHU21623XXSP,2013-08-07 17:17:00,
2013-08-07 13:22:00,75.4,65.6,30.15,SSE,157,2.7,3.8,71,0.00,,,0.00,WUHU21623XXSP,2013-08-07 17:22:00,
2013-08-07 13:27:00,75.4,65.6,30.15,ESE,121,3.3,8.1,71,0.00,,,0.00,WUHU21623XXSP,2013-08-07 17:27:00,
2013-08-07 13:32:00,75.6,65.8,30.14,SE,135,4.7,8.1,71,0.00,,,0.00,WUHU21623XXSP,2013-08-07 17:32:00,
2013-08-07 13:37:00,75.7,65.5,30.14,SE,129,3.2,7.6,70,0.00,,,0.00,WUHU21623XXSP,2013-08-07 17:37:00,
2013-08-07 13:42:00,75.7,65.5,30.14,SE,135,0.9,7.6,70,0.00,,,0.00,WUHU21623XXSP,2013-08-07 17:42:00,
2013-08-07 13:46:00,75.6,65.4,30.14,ESE,120,3.8,8.5,70,0.00,,,0.00,WUHU21623XXSP,2013-08-07 17:46:00,
2013-08-07 13:52:00,75.6,65.4,30.14,SE,135,0.5,7.2,70,0.00,,,0.00,WUHU21623XXSP,2013-08-07 17:52:00,
2013-08-07 13:57:00,75.2,65.0,30.14,SE,125,2.6,6.9,70,0.00,,,0.00,WUHU21623XXSP,2013-08-07 17:57:00,
2013-08-07 14:02:00,75.2,65.0,30.14,ESE,116,4.0,6.3,70,0.00,,,0.00,WUHU21623XXSP,2013-08-07 18:02:00,
2013-08-07 14:07:00,75.4,65.6,30.13,SE,135,0.6,6.3,71,0.00,,,0.00,WUHU21623XXSP,2013-08-07 18:07:00,
2013-08-07 14:12:00,75.6,65.8,30.13,SE,135,0.3,6.0,71,0.00,,,0.00,WUHU21623XXSP,2013-08-07 18:12:00,
2013-08-07 14:17:00,76.3,66.5,30.13,ESE,113,0.3,3.1,71,0.00,,,0.00,WUHU21623XXSP,2013-08-07 18:17:00,
2013-08-07 14:22:00,77.2,66.9,30.13,SE,135,2.9,6.5,70,0.00,,,0.00,WUHU21623XXSP,2013-08-07 18:22:00,
2013-08-07 14:27:00,77.5,66.8,30.13,SE,129,2.8,6.5,69,0.00,,,0.00,WUHU21623XXSP,2013-08-07 18:27:00,
2013-08-07 14:32:00,78.1,67.0,30.13,ESE,116,8.4,11.9,68,0.00,,,0.00,WUHU21623XXSP,2013-08-07 18:32:00,
2013-08-07 14:37:00,78.4,66.9,30.13,SSE,157,2.0,11.9,67,0.00,,,0.00,WUHU21623XXSP,2013-08-07 18:37:00,
2013-08-07 14:42:00,79.2,67.6,30.13,SSE,147,2.0,8.1,67,0.00,,,0.00,WUHU21623XXSP,2013-08-07 18:42:00,
2013-08-07 14:47:00,79.5,67.5,30.13,SE,130,3.1,8.9,66,0.00,,,0.00,WUHU21623XXSP,2013-08-07 18:47:00,
2013-08-07 14:52:00,79.9,67.9,30.13,SE,127,2.6,8.9,66,0.00,,,0.00,WUHU21623XXSP,2013-08-07 18:52:00,
2013-08-07 14:57:00,80.1,67.6,30.13,East,90,5.4,14.5,65,0.00,,,0.00,WUHU21623XXSP,2013-08-07 18:57:00,
2013-08-07 15:02:00,79.9,67.4,30.13,SE,141,0.4,14.5,65,0.00,,,0.00,WUHU21623XXSP,2013-08-07 19:02:00,
2013-08-07 15:07:00,79.7,67.2,30.13,ESE,123,3.9,8.7,65,0.00,,,0.00,WUHU21623XXSP,2013-08-07 19:07:00,
2013-08-07 15:12:00,79.7,67.2,30.13,SE,124,3.1,8.7,65,0.00,,,0.00,WUHU21623XXSP,2013-08-07 19:12:00,
2013-08-07 15:17:00,79.2,67.2,30.13,ESE,120,2.9,8.1,66,0.00,,,0.00,WUHU21623XXSP,2013-08-07 19:17:00,
2013-08-07 15:22:00,78.8,66.8,30.11,SE,128,1.7,8.1,66,0.00,,,0.00,WUHU21623XXSP,2013-08-07 19:22:00,
2013-08-07 15:27:00,78.4,66.4,30.11,SE,135,0.9,6.9,66,0.00,,,0.00,WUHU21623XXSP,2013-08-07 19:27:00,
2013-08-07 15:32:00,78.4,67.3,30.11,ESE,121,4.3,9.8,68,0.00,,,0.00,WUHU21623XXSP,2013-08-07 19:32:00,
2013-08-07 15:37:00,78.8,67.7,30.11,ESE,117,3.6,9.8,68,0.00,,,0.00,WUHU21623XXSP,2013-08-07 19:37:00,
2013-08-07 15:42:00,79.0,67.9,30.11,ESE,117,5.3,13.9,68,0.00,,,0.00,WUHU21623XXSP,2013-08-07 19:42:00,
2013-08-07 15:47:00,78.8,67.2,30.11,ESE,112,6.3,13.9,67,0.00,,,0.00,WUHU21623XXSP,2013-08-07 19:47:00,
2013-08-07 15:52:00,78.4,66.9,30.11,SE,135,5.8,10.7,67,0.00,,,0.00,WUHU21623XXSP,2013-08-07 19:52:00,
2013-08-07 15:57:00,78.3,66.8,30.11,ESE,112,5.4,7.6,67,0.00,,,0.00,WUHU21623XXSP,2013-08-07 19:57:00,
2013-08-07 16:02:00,77.7,66.6,30.11,ESE,117,2.3,10.3,68,0.00,,,0.00,WUHU21623XXSP,2013-08-07 20:02:00,
2013-08-07 16:07:00,77.5,66.8,30.11,ESE,111,2.8,10.3,69,0.00,,,0.00,WUHU21623XXSP,2013-08-07 20:07:00,
2013-08-07 16:12:00,77.5,66.8,30.11,ESE,112,3.1,7.4,69,0.00,,,0.00,WUHU21623XXSP,2013-08-07 20:12:00,
2013-08-07 16:17:00,77.4,66.7,30.11,South,176,2.9,6.5,69,0.00,,,0.00,WUHU21623XXSP,2013-08-07 20:17:00,
2013-08-07 16:22:00,77.5,66.8,30.11,SE,131,1.7,6.3,69,0.00,,,0.00,WUHU21623XXSP,2013-08-07 20:22:00,
2013-08-07 16:27:00,77.5,66.8,30.11,SE,141,1.3,5.8,69,0.00,,,0.00,WUHU21623XXSP,2013-08-07 20:27:00,
2013-08-07 16:32:00,77.5,66.4,30.10,SSE,154,4.0,6.9,68,0.00,,,0.00,WUHU21623XXSP,2013-08-07 20:32:00,
2013-08-07 16:37:00,77.7,66.6,30.10,ESE,112,2.7,6.9,68,0.00,,,0.00,WUHU21623XXSP,2013-08-07 20:37:00,
2013-08-07 16:42:00,77.9,66.4,30.10,South,180,6.5,7.8,67,0.00,,,0.00,WUHU21623XXSP,2013-08-07 20:42:00,
2013-08-07 16:47:00,78.1,66.1,30.10,SE,140,5.1,16.8,66,0.00,,,0.00,WUHU21623XXSP,2013-08-07 20:47:00,
2013-08-07 16:52:00,77.9,65.9,30.10,SSE,164,1.8,16.8,66,0.00,,,0.00,WUHU21623XXSP,2013-08-07 20:52:00,
2013-08-07 16:57:00,77.9,66.8,30.10,SE,131,3.7,11.9,68,0.00,,,0.00,WUHU21623XXSP,2013-08-07 20:57:00,
2013-08-07 17:02:00,77.7,66.2,30.10,SSE,151,3.1,10.7,67,0.00,,,0.00,WUHU21623XXSP,2013-08-07 21:02:00,
2013-08-07 17:07:00,77.7,66.6,30.10,SE,135,5.8,11.9,68,0.00,,,0.00,WUHU21623XXSP,2013-08-07 21:07:00,
2013-08-07 17:12:00,77.9,66.8,30.10,SSE,157,3.8,11.9,68,0.00,,,0.00,WUHU21623XXSP,2013-08-07 21:12:00,
2013-08-07 17:17:00,77.7,66.2,30.10,SSE,150,3.9,8.9,67,0.00,,,0.00,WUHU21623XXSP,2013-08-07 21:17:00,
2013-08-07 17:22:00,77.7,66.6,30.10,SE,142,4.1,11.2,68,0.00,,,0.00,WUHU21623XXSP,2013-08-07 21:22:00,
2013-08-07 17:27:00,77.5,66.4,30.10,SE,125,4.6,11.2,68,0.00,,,0.00,WUHU21623XXSP,2013-08-07 21:27:00,
2013-08-07 17:32:00,77.2,66.1,30.10,South,180,6.7,11.2,68,0.00,,,0.00,WUHU21623XXSP,2013-08-07 21:32:00,
2013-08-07 17:37:00,76.8,65.7,30.10,SSE,162,4.0,9.2,68,0.00,,,0.00,WUHU21623XXSP,2013-08-07 21:37:00,
2013-08-07 17:42:00,76.6,65.5,30.10,SSW,202,9.2,9.2,68,0.00,,,0.00,WUHU21623XXSP,2013-08-07 21:42:00,
2013-08-07 17:47:00,76.5,65.9,30.09,SSE,157,3.8,9.2,69,0.00,,,0.00,WUHU21623XXSP,2013-08-07 21:47:00,
2013-08-07 17:52:00,76.3,65.7,30.09,SSE,157,2.5,7.4,69,0.00,,,0.00,WUHU21623XXSP,2013-08-07 21:52:00,
2013-08-07 17:57:00,76.1,65.5,30.10,SE,128,5.0,9.8,69,0.00,,,0.00,WUHU21623XXSP,2013-08-07 21:57:00,
2013-08-07 18:02:00,75.9,65.7,30.10,South,180,3.8,9.8,70,0.00,,,0.00,WUHU21623XXSP,2013-08-07 22:02:00,
2013-08-07 18:07:00,75.9,66.1,30.10,SSE,159,3.9,7.6,71,0.00,,,0.00,WUHU21623XXSP,2013-08-07 22:07:00,
2013-08-07 18:12:00,75.6,65.8,30.10,SSE,151,1.9,8.9,71,0.00,,,0.00,WUHU21623XXSP,2013-08-07 22:12:00,
2013-08-07 18:17:00,75.6,66.2,30.10,ESE,109,3.7,9.4,72,0.00,,,0.00,WUHU21623XXSP,2013-08-07 22:17:00,
2013-08-07 18:22:00,75.4,66.4,30.09,SE,135,1.3,9.4,73,0.00,,,0.00,WUHU21623XXSP,2013-08-07 22:22:00,
2013-08-07 18:27:00,75.2,66.2,30.09,SSE,150,1.5,8.1,73,0.00,,,0.00,WUHU21623XXSP,2013-08-07 22:27:00,
2013-08-07 18:33:00,75.0,66.0,30.08,SSE,158,2.4,6.3,73,0.00,,,0.00,WUHU21623XXSP,2013-08-07 22:33:00,
2013-08-07 18:38:00,74.8,66.2,30.08,SE,145,1.1,6.3,74,0.00,,,0.00,WUHU21623XXSP,2013-08-07 22:38:00,
2013-08-07 18:43:00,74.8,66.2,30.09,East,90,6.3,9.2,74,0.00,,,0.00,WUHU21623XXSP,2013-08-07 22:43:00,
2013-08-07 18:48:00,74.7,66.1,30.09,SW,225,2.7,9.2,74,0.00,,,0.00,WUHU21623XXSP,2013-08-07 22:48:00,
2013-08-07 18:53:00,74.7,66.1,30.09,ESE,123,2.5,8.7,74,0.00,,,0.00,WUHU21623XXSP,2013-08-07 22:53:00,
2013-08-07 18:58:00,74.5,66.3,30.08,SSE,157,1.6,6.3,75,0.00,,,0.00,WUHU21623XXSP,2013-08-07 22:58:00,
2013-08-07 19:03:00,74.5,66.3,30.09,SSE,157,2.0,6.3,75,0.00,,,0.00,WUHU21623XXSP,2013-08-07 23:03:00,
2013-08-07 19:08:00,74.3,66.1,30.09,SSW,202,3.6,3.8,75,0.00,,,0.00,WUHU21623XXSP,2013-08-07 23:08:00,
2013-08-07 19:13:00,74.3,66.1,30.09,SSE,151,1.0,6.9,75,0.00,,,0.00,WUHU21623XXSP,2013-08-07 23:13:00,
2013-08-07 19:18:00,74.3,66.1,30.09,ENE,67,1.6,12.1,75,0.00,,,0.00,WUHU21623XXSP,2013-08-07 23:18:00,
2013-08-07 19:23:00,74.3,66.5,30.09,SSE,157,3.1,12.1,76,0.00,,,0.00,WUHU21623XXSP,2013-08-07 23:23:00,
2013-08-07 19:28:00,74.1,66.6,30.08,SE,135,2.5,7.8,77,0.00,,,0.00,WUHU21623XXSP,2013-08-07 23:28:00,
2013-08-07 19:33:00,74.1,66.6,30.08,ESE,112,4.7,8.1,77,0.00,,,0.00,WUHU21623XXSP,2013-08-07 23:33:00,
2013-08-07 19:38:00,74.1,66.6,30.08,SE,141,4.5,9.8,77,0.00,,,0.00,WUHU21623XXSP,2013-08-07 23:38:00,
2013-08-07 19:43:00,74.1,66.6,30.08,SE,127,2.9,9.8,77,0.00,,,0.00,WUHU21623XXSP,2013-08-07 23:43:00,
2013-08-07 19:48:00,73.9,66.8,30.09,SE,141,2.9,5.4,78,0.00,,,0.00,WUHU21623XXSP,2013-08-07 23:48:00,
2013-08-07 19:53:00,73.8,66.7,30.08,South,180,2.2,6.5,78,0.00,,,0.00,WUHU21623XXSP,2013-08-07 23:53:00,
2013-08-07 19:58:00,73.8,66.7,30.08,SE,135,4.5,6.5,78,0.00,,,0.00,WUHU21623XXSP,2013-08-07 23:58:00,
2013-08-07 20:03:00,73.8,67.1,30.08,SE,134,1.9,6.5,79,0.00,,,0.00,WUHU21623XXSP,2013-08-08 00:03:00,
2013-08-07 20:08:00,73.8,67.1,30.08,SE,127,2.8,6.5,79,0.00,,,0.00,WUHU21623XXSP,2013-08-08 00:08:00,
2013-08-07 20:13:00,73.6,66.9,30.08,SE,135,2.0,6.3,79,0.00,,,0.00,WUHU21623XXSP,2013-08-08 00:13:00,
2013-08-07 20:18:00,73.6,67.2,30.08,SE,136,2.3,6.3,80,0.00,,,0.00,WUHU21623XXSP,2013-08-08 00:18:00,
2013-08-07 20:23:00,73.6,67.2,30.08,SSE,151,1.3,6.3,80,0.00,,,0.00,WUHU21623XXSP,2013-08-08 00:23:00,
2013-08-07 20:28:00,73.6,67.6,30.09,SE,145,4.0,8.1,81,0.00,,,0.00,WUHU21623XXSP,2013-08-08 00:28:00,
2013-08-07 20:33:00,73.6,67.6,30.08,ESE,112,1.6,8.1,81,0.00,,,0.00,WUHU21623XXSP,2013-08-08 00:33:00,
2013-08-07 20:38:00,73.4,67.7,30.09,South,180,0.4,4.3,82,0.00,,,0.00,WUHU21623XXSP,2013-08-08 00:38:00,
2013-08-07 20:43:00,73.6,67.9,30.08,SE,135,3.6,6.7,82,0.00,,,0.00,WUHU21623XXSP,2013-08-08 00:43:00,
2013-08-07 20:48:00,73.6,67.9,30.08,SE,135,5.1,6.7,82,0.00,,,0.00,WUHU21623XXSP,2013-08-08 00:48:00,
2013-08-07 20:54:00,73.4,68.0,30.08,SSE,157,2.5,8.5,83,0.00,,,0.00,WUHU21623XXSP,2013-08-08 00:54:00,
2013-08-07 20:59:00,73.4,68.4,30.08,SSE,148,1.8,9.4,84,0.00,,,0.00,WUHU21623XXSP,2013-08-08 00:59:00,
2013-08-07 21:04:00,73.4,68.4,30.08,South,174,1.6,9.4,84,0.00,,,0.00,WUHU21623XXSP,2013-08-08 01:04:00,
2013-08-07 21:10:00,73.4,68.4,30.09,NE,45,4.5,6.0,84,0.00,,,0.00,WUHU21623XXSP,2013-08-08 01:10:00,
2013-08-07 21:15:00,73.2,68.5,30.09,SSE,157,8.9,8.9,85,0.00,,,0.00,WUHU21623XXSP,2013-08-08 01:15:00,
2013-08-07 21:20:00,73.2,68.5,30.09,SSE,165,2.5,8.9,85,0.00,,,0.00,WUHU21623XXSP,2013-08-08 01:20:00,
2013-08-07 21:25:00,73.0,68.3,30.09,SSE,162,3.7,8.5,85,0.00,,,0.00,WUHU21623XXSP,2013-08-08 01:25:00,
2013-08-07 21:30:00,73.0,68.3,30.09,South,172,2.7,8.5,85,0.00,,,0.00,WUHU21623XXSP,2013-08-08 01:30:00,
2013-08-07 21:35:00,73.0,68.3,30.09,SSE,159,2.9,6.7,85,0.00,,,0.00,WUHU21623XXSP,2013-08-08 01:35:00,
2013-08-07 21:41:00,72.9,68.2,30.10,SE,135,1.1,6.7,85,0.00,,,0.00,WUHU21623XXSP,2013-08-08 01:41:00,
2013-08-07 21:46:00,72.9,68.6,30.10,SE,135,2.5,9.2,86,0.00,,,0.00,WUHU21623XXSP,2013-08-08 01:46:00,
2013-08-07 21:51:00,72.9,68.6,30.10,SSE,167,4.1,9.6,86,0.00,,,0.00,WUHU21623XXSP,2013-08-08 01:51:00,
2013-08-07 21:56:00,72.9,68.6,30.10,SSE,157,1.8,9.6,86,0.00,,,0.00,WUHU21623XXSP,2013-08-08 01:56:00,
2013-08-07 22:01:00,72.9,68.9,30.10,SSE,157,3.1,4.7,87,0.00,,,0.00,WUHU21623XXSP,2013-08-08 02:01:00,
2013-08-07 22:06:00,72.9,68.9,30.10,East,90,7.4,7.4,87,0.00,,,0.00,WUHU21623XXSP,2013-08-08 02:06:00,
2013-08-07 22:11:00,72.9,68.9,30.09,SSE,151,1.3,7.4,87,0.00,,,0.00,WUHU21623XXSP,2013-08-08 02:11:00,
2013-08-07 22:16:00,72.9,69.2,30.10,South,181,4.3,9.2,88,0.00,,,0.00,WUHU21623XXSP,2013-08-08 02:16:00,
2013-08-07 22:21:00,72.9,69.2,30.10,SSE,155,3.5,11.4,88,0.00,,,0.00,WUHU21623XXSP,2013-08-08 02:21:00,
2013-08-07 22:26:00,72.7,69.0,30.10,SE,145,3.7,11.4,88,0.00,,,0.00,WUHU21623XXSP,2013-08-08 02:26:00,
2013-08-07 22:31:00,72.7,69.0,30.10,SSE,157,2.5,8.7,88,0.00,,,0.00,WUHU21623XXSP,2013-08-08 02:31:00,
2013-08-07 22:36:00,72.7,69.3,30.10,SE,135,4.0,8.7,89,0.00,,,0.00,WUHU21623XXSP,2013-08-08 02:36:00,
2013-08-07 22:41:00,72.5,69.1,30.10,SSE,166,1.5,6.5,89,0.00,,,0.00,WUHU21623XXSP,2013-08-08 02:41:00,
2013-08-07 22:46:00,72.7,69.3,30.10,SSW,202,0.1,6.5,89,0.00,,,0.00,WUHU21623XXSP,2013-08-08 02:46:00,
2013-08-07 22:51:00,72.7,69.3,30.10,SSE,157,1.3,4.3,89,0.00,,,0.00,WUHU21623XXSP,2013-08-08 02:51:00,
2013-08-07 22:56:00,72.7,69.3,30.10,SSE,153,1.4,4.3,89,0.00,,,0.00,WUHU21623XXSP,2013-08-08 02:56:00,
2013-08-07 23:01:00,72.5,69.1,30.10,SE,135,6.5,6.5,89,0.00,,,0.00,WUHU21623XXSP,2013-08-08 03:01:00,
2013-08-07 23:06:00,72.5,69.1,30.10,SE,135,2.9,6.5,89,0.00,,,0.00,WUHU21623XXSP,2013-08-08 03:06:00,
2013-08-07 23:11:00,72.5,69.1,30.10,SSW,202,5.1,6.3,89,0.00,,,0.00,WUHU21623XXSP,2013-08-08 03:11:00,
2013-08-07 23:16:00,72.5,69.1,30.10,SSE,157,2.0,6.3,89,0.00,,,0.00,WUHU21623XXSP,2013-08-08 03:16:00,
2013-08-07 23:21:00,72.5,69.1,30.10,SSW,202,1.6,6.0,89,0.00,,,0.00,WUHU21623XXSP,2013-08-08 03:21:00,
2013-08-07 23:26:00,72.5,69.1,30.10,SE,135,0.1,2.5,89,0.00,,,0.00,WUHU21623XXSP,2013-08-08 03:26:00,
2013-08-07 23:31:00,72.5,69.1,30.09,SSE,159,1.1,3.1,89,0.00,,,0.00,WUHU21623XXSP,2013-08-08 03:31:00,
2013-08-07 23:36:00,72.5,69.1,30.09,SW,222,1.3,3.4,89,0.00,,,0.00,WUHU21623XXSP,2013-08-08 03:36:00,
2013-08-07 23:41:00,72.5,69.1,30.09,SSE,167,0.4,3.4,89,0.00,,,0.00,WUHU21623XXSP,2013-08-08 03:41:00,
2013-08-07 23:46:00,72.5,69.1,30.09,SE,135,0.9,2.9,89,0.00,,,0.00,WUHU21623XXSP,2013-08-08 03:46:00,
2013-08-07 23:51:00,72.5,69.1,30.08,South,179,1.9,3.1,89,0.00,,,0.00,WUHU21623XXSP,2013-08-08 03:51:00,
2013-08-07 23:56:00,72.5,69.1,30.08,SE,135,0.1,3.1,89,0.00,,,0.00,WUHU21623XXSP,2013-08-08 03:56:00,